sensor_id;sensor_type;location;lat;lon;timestamp;pressure;altitude;pressure_sealevel;temperature;humidity
5988;BME280;3021;51.000;6.980;2022-09-17T00:01:07;67519.16;;;10.99;100.00
5988;BME280;3021;51.000;6.980;2022-09-17T00:03:34;67524.63;;;10.99;100.00
5988;BME280;3021;51.000;6.980;2022-09-17T00:06:05;67533.03;;;11.11;100.00
5988;BME280;3021;51.000;6.980;2022-09-17T00:08:32;67532.75;;;11.06;100.00
5988;BME280;3021;51.000;6.980;2022-09-17T00:11:11;67526.09;;;11.05;100.00
5988;BME280;3021;51.000;6.980;2022-09-17T00:13:38;67529.84;;;11.03;100.00
5988;BME280;3021;51.000;6.980;2022-09-17T00:16:04;67525.38;;;11.02;100.00
5988;BME280;3021;51.000;6.980;2022-09-17T00:18:30;67533.91;;;11.07;100.00
5988;BME280;3021;51.000;6.980;2022-09-17T00:20:55;67532.31;;;11.08;100.00
5988;BME280;3021;51.000;6.980;2022-09-17T00:23:21;67529.84;;;11.03;100.00
5988;BME280;3021;51.000;6.980;2022-09-17T00:25:46;67523.06;;;11.00;100.00
5988;BME280;3021;51.000;6.980;2022-09-17T00:28:12;67523.06;;;11.00;100.00
5988;BME280;3021;51.000;6.980;2022-09-17T00:30:43;67525.38;;;11.02;100.00
5988;BME280;3021;51.000;6.980;2022-09-17T00:33:14;67531.16;;;11.07;100.00
5988;BME280;3021;51.000;6.980;2022-09-17T00:35:40;67528.41;;;11.07;100.00
5988;BME280;3021;51.000;6.980;2022-09-17T00:38:05;67539.84;;;11.15;100.00
5988;BME280;3021;51.000;6.980;2022-09-17T00:40:30;67533.31;;;11.06;100.00
5988;BME280;3021;51.000;6.980;2022-09-17T00:42:56;67533.91;;;11.07;100.00
5988;BME280;3021;51.000;6.980;2022-09-17T00:45:22;67527.13;;;11.03;100.00
5988;BME280;3021;51.000;6.980;2022-09-17T00:48:00;67534.03;;;11.10;100.00
5988;BME280;3021;51.000;6.980;2022-09-17T00:50:29;67535.78;;;11.11;100.00
5988;BME280;3021;51.000;6.980;2022-09-17T00:53:15;67540.25;;;11.13;100.00
5988;BME280;3021;51.000;6.980;2022-09-17T00:55:45;67532.31;;;11.08;100.00
5988;BME280;3021;51.000;6.980;2022-09-17T00:58:14;67530.56;;;11.06;100.00
5988;BME280;3021;51.000;6.980;2022-09-17T01:00:41;67531.16;;;11.07;100.00
5988;BME280;3021;51.000;6.980;2022-09-17T01:03:07;67536.94;;;11.12;100.00
5988;BME280;3021;51.000;6.980;2022-09-17T01:05:39;67535.22;;;11.11;100.00
5988;BME280;3021;51.000;6.980;2022-09-17T01:08:09;67540.97;;;11.16;100.00
5988;BME280;3021;51.000;6.980;2022-09-17T01:18:38;67539.84;;;11.15;100.00
5988;BME280;3021;51.000;6.980;2022-09-17T01:27:04;67516.56;;;10.92;100.00
5988;BME280;3021;51.000;6.980;2022-09-17T01:34:44;67519.03;;;10.96;100.00
5988;BME280;3021;51.000;6.980;2022-09-17T01:37:17;67531.59;;;11.05;100.00
5988;BME280;3021;51.000;6.980;2022-09-17T01:39:50;67532.31;;;11.08;100.00
5988;BME280;3021;51.000;6.980;2022-09-17T01:42:26;67537.34;;;11.10;100.00
5988;BME280;3021;51.000;6.980;2022-09-17T01:45:08;67540.97;;;11.16;100.00
5988;BME280;3021;51.000;6.980;2022-09-17T01:47:41;67545.03;;;11.19;100.00
5988;BME280;3021;51.000;6.980;2022-09-17T01:50:17;67551.81;;;11.23;100.00
5988;BME280;3021;51.000;6.980;2022-09-17T01:52:46;67550.81;;;11.24;100.00
5988;BME280;3021;51.000;6.980;2022-09-17T01:55:15;67553.69;;;11.27;100.00
5988;BME280;3021;51.000;6.980;2022-09-17T01:57:52;67554.84;;;11.28;100.00
5988;BME280;3021;51.000;6.980;2022-09-17T02:00:20;67555.88;;;11.27;100.00
5988;BME280;3021;51.000;6.980;2022-09-17T02:08:20;67559.91;;;11.30;100.00
5988;BME280;3021;51.000;6.980;2022-09-17T02:13:40;67544.59;;;11.21;100.00
5988;BME280;3021;51.000;6.980;2022-09-17T02:16:13;67546.31;;;11.23;100.00
5988;BME280;3021;51.000;6.980;2022-09-17T02:24:29;67537.66;;;11.15;100.00
5988;BME280;3021;51.000;6.980;2022-09-17T02:27:32;67529.00;;;11.07;100.00
5988;BME280;3021;51.000;6.980;2022-09-17T02:29:59;67523.06;;;11.00;100.00
5988;BME280;3021;51.000;6.980;2022-09-17T02:32:25;67525.38;;;11.02;100.00
5988;BME280;3021;51.000;6.980;2022-09-17T02:34:51;67531.75;;;11.07;100.00
5988;BME280;3021;51.000;6.980;2022-09-17T02:37:17;67531.59;;;11.05;100.00
5988;BME280;3021;51.000;6.980;2022-09-17T02:39:42;67534.63;;;11.10;100.00
5988;BME280;3021;51.000;6.980;2022-09-17T02:55:22;67529.00;;;11.07;100.00
5988;BME280;3021;51.000;6.980;2022-09-17T02:58:20;67535.78;;;11.11;100.00
5988;BME280;3021;51.000;6.980;2022-09-17T03:00:49;67519.03;;;10.96;100.00
5988;BME280;3021;51.000;6.980;2022-09-17T03:03:28;67510.78;;;10.86;100.00
5988;BME280;3021;51.000;6.980;2022-09-17T03:05:55;67508.59;;;10.87;100.00
5988;BME280;3021;51.000;6.980;2022-09-17T03:08:37;67500.09;;;10.82;100.00
5988;BME280;3021;51.000;6.980;2022-09-17T03:11:04;67506.88;;;10.85;100.00
5988;BME280;3021;51.000;6.980;2022-09-17T03:13:30;67504.41;;;10.81;100.00
5988;BME280;3021;51.000;6.980;2022-09-17T03:15:56;67498.63;;;10.76;100.00
5988;BME280;3021;51.000;6.980;2022-09-17T03:18:21;67497.63;;;10.77;100.00
5988;BME280;3021;51.000;6.980;2022-09-17T03:20:47;67499.94;;;10.79;100.00
5988;BME280;3021;51.000;6.980;2022-09-17T03:23:13;67506.72;;;10.83;100.00
5988;BME280;3021;51.000;6.980;2022-09-17T03:25:38;67502.97;;;10.84;100.00
5988;BME280;3021;51.000;6.980;2022-09-17T03:28:04;67513.81;;;10.92;100.00
5988;BME280;3021;51.000;6.980;2022-09-17T03:30:29;67519.44;;;10.94;100.00
5988;BME280;3021;51.000;6.980;2022-09-17T03:32:55;67525.38;;;11.02;100.00
5988;BME280;3021;51.000;6.980;2022-09-17T03:35:20;67524.78;;;11.01;100.00
5988;BME280;3021;51.000;6.980;2022-09-17T03:37:45;67535.22;;;11.11;100.00
5988;BME280;3021;51.000;6.980;2022-09-17T03:40:12;67539.09;;;11.12;100.00
5988;BME280;3021;51.000;6.980;2022-09-17T03:42:37;67533.47;;;11.09;100.00
5988;BME280;3021;51.000;6.980;2022-09-17T03:45:03;67539.84;;;11.15;100.00
5988;BME280;3021;51.000;6.980;2022-09-17T03:47:28;67538.22;;;11.16;100.00
5988;BME280;3021;51.000;6.980;2022-09-17T03:49:54;67545.44;;;11.17;100.00
5988;BME280;3021;51.000;6.980;2022-09-17T03:52:20;67542.13;;;11.17;100.00
5988;BME280;3021;51.000;6.980;2022-09-17T03:54:45;67546.19;;;11.20;100.00
5988;BME280;3021;51.000;6.980;2022-09-17T03:57:10;67548.50;;;11.22;100.00
5988;BME280;3021;51.000;6.980;2022-09-17T03:59:36;67551.81;;;11.23;100.00
5988;BME280;3021;51.000;6.980;2022-09-17T04:02:01;67545.75;;;11.22;100.00
5988;BME280;3021;51.000;6.980;2022-09-17T04:04:26;67553.13;;;11.27;100.00
5988;BME280;3021;51.000;6.980;2022-09-17T04:06:52;67547.47;;;11.24;100.00
5988;BME280;3021;51.000;6.980;2022-09-17T04:09:18;67554.72;;;11.26;100.00
5988;BME280;3021;51.000;6.980;2022-09-17T04:11:44;67558.19;;;11.29;100.00
5988;BME280;3021;51.000;6.980;2022-09-17T04:14:09;67546.63;;;11.18;100.00
5988;BME280;3021;51.000;6.980;2022-09-17T04:16:34;67539.69;;;11.12;100.00
5988;BME280;3021;51.000;6.980;2022-09-17T04:19:00;67512.06;;;10.90;100.00
5988;BME280;3021;51.000;6.980;2022-09-17T04:21:25;67505.72;;;10.84;100.00
5988;BME280;3021;51.000;6.980;2022-09-17T04:23:50;67499.34;;;10.79;100.00
5988;BME280;3021;51.000;6.980;2022-09-17T04:26:16;67492.88;;;10.70;100.00
5988;BME280;3021;51.000;6.980;2022-09-17T04:28:41;67494.75;;;10.75;100.00
5988;BME280;3021;51.000;6.980;2022-09-17T04:31:07;67493.44;;;10.71;100.00
5988;BME280;3021;51.000;6.980;2022-09-17T04:33:32;67493.16;;;10.76;100.00
5988;BME280;3021;51.000;6.980;2022-09-17T04:35:57;67504.56;;;10.83;100.00
5988;BME280;3021;51.000;6.980;2022-09-17T04:38:23;67504.41;;;10.81;100.00
5988;BME280;3021;51.000;6.980;2022-09-17T04:40:48;67510.78;;;10.86;100.00
5988;BME280;3021;51.000;6.980;2022-09-17T04:43:14;67511.66;;;10.92;100.00
5988;BME280;3021;51.000;6.980;2022-09-17T04:45:40;67518.59;;;10.98;100.00
5988;BME280;3021;51.000;6.980;2022-09-17T04:48:05;67521.19;;;10.96;100.00
5988;BME280;3021;51.000;6.980;2022-09-17T04:50:30;67525.38;;;11.02;100.00
5988;BME280;3021;51.000;6.980;2022-09-17T04:52:56;67526.53;;;11.03;100.00
5988;BME280;3021;51.000;6.980;2022-09-17T04:55:21;67533.91;;;11.07;100.00
5988;BME280;3021;51.000;6.980;2022-09-17T04:57:48;67533.31;;;11.06;100.00
5988;BME280;3021;51.000;6.980;2022-09-17T05:00:15;67525.38;;;11.02;100.00
5988;BME280;3021;51.000;6.980;2022-09-17T05:02:47;67528.25;;;11.04;100.00
5988;BME280;3021;51.000;6.980;2022-09-17T05:05:14;67532.31;;;11.08;100.00
5988;BME280;3021;51.000;6.980;2022-09-17T05:07:40;67528.84;;;11.05;100.00
5988;BME280;3021;51.000;6.980;2022-09-17T05:10:06;67521.19;;;10.96;100.00
5988;BME280;3021;51.000;6.980;2022-09-17T05:12:32;67521.91;;;10.99;100.00
5988;BME280;3021;51.000;6.980;2022-09-17T05:14:57;67523.50;;;10.98;100.00
5988;BME280;3021;51.000;6.980;2022-09-17T05:17:22;67517.13;;;10.92;100.00
5988;BME280;3021;51.000;6.980;2022-09-17T05:19:47;67529.00;;;11.07;100.00
5988;BME280;3021;51.000;6.980;2022-09-17T05:22:13;67528.25;;;11.04;100.00
5988;BME280;3021;51.000;6.980;2022-09-17T05:24:38;67521.31;;;10.98;100.00
5988;BME280;3021;51.000;6.980;2022-09-17T05:27:05;67521.31;;;10.98;100.00
5988;BME280;3021;51.000;6.980;2022-09-17T05:29:31;67520.75;;;10.98;100.00
5988;BME280;3021;51.000;6.980;2022-09-17T05:31:56;67524.63;;;10.99;100.00
5988;BME280;3021;51.000;6.980;2022-09-17T05:34:21;67522.91;;;10.97;100.00
5988;BME280;3021;51.000;6.980;2022-09-17T05:36:47;67520.16;;;10.97;100.00
5988;BME280;3021;51.000;6.980;2022-09-17T05:39:13;67526.41;;;11.00;100.00
5988;BME280;3021;51.000;6.980;2022-09-17T05:41:38;67528.84;;;11.05;100.00
5988;BME280;3021;51.000;6.980;2022-09-17T05:44:04;67533.59;;;11.12;100.00
5988;BME280;3021;51.000;6.980;2022-09-17T05:46:29;67540.84;;;11.13;100.00
5988;BME280;3021;51.000;6.980;2022-09-17T05:48:55;67539.84;;;11.15;100.00
5988;BME280;3021;51.000;6.980;2022-09-17T05:51:21;67544.31;;;11.16;100.00
5988;BME280;3021;51.000;6.980;2022-09-17T05:53:46;67542.72;;;11.17;100.00
5988;BME280;3021;51.000;6.980;2022-09-17T05:56:11;67553.69;;;11.27;100.00
5988;BME280;3021;51.000;6.980;2022-09-17T05:58:37;67568.16;;;11.40;100.00
5988;BME280;3021;51.000;6.980;2022-09-17T06:01:02;67575.69;;;11.47;100.00
5988;BME280;3021;51.000;6.980;2022-09-17T06:03:28;67582.59;;;11.53;100.00
5988;BME280;3021;51.000;6.980;2022-09-17T06:05:55;67595.47;;;11.67;100.00
5988;BME280;3021;51.000;6.980;2022-09-17T06:08:23;67596.06;;;11.67;100.00
5988;BME280;3021;51.000;6.980;2022-09-17T06:10:48;67614.41;;;11.81;100.00
5988;BME280;3021;51.000;6.980;2022-09-17T06:13:15;67632.97;;;11.98;100.00
5988;BME280;3021;51.000;6.980;2022-09-17T06:15:41;67639.47;;;12.06;100.00
5988;BME280;3021;51.000;6.980;2022-09-17T06:18:06;67651.03;;;12.16;100.00
5988;BME280;3021;51.000;6.980;2022-09-17T06:20:32;67652.06;;;12.15;100.00
5988;BME280;3021;51.000;6.980;2022-09-17T06:22:57;67662.63;;;12.26;100.00
5988;BME280;3021;51.000;6.980;2022-09-17T06:25:24;67692.72;;;12.53;100.00
5988;BME280;3021;51.000;6.980;2022-09-17T06:27:50;67730.19;;;12.84;100.00
5988;BME280;3021;51.000;6.980;2022-09-17T06:30:16;67814.16;;;13.59;100.00
5988;BME280;3021;51.000;6.980;2022-09-17T06:32:41;67887.34;;;14.26;100.00
5988;BME280;3021;51.000;6.980;2022-09-17T06:35:07;67859.50;;;14.02;100.00
5988;BME280;3021;51.000;6.980;2022-09-17T06:37:32;67822.88;;;13.67;100.00
5988;BME280;3021;51.000;6.980;2022-09-17T06:39:58;67796.81;;;13.43;100.00
5988;BME280;3021;51.000;6.980;2022-09-17T06:42:25;67773.19;;;13.25;100.00
5988;BME280;3021;51.000;6.980;2022-09-17T06:44:50;67757.41;;;13.08;100.00
5988;BME280;3021;51.000;6.980;2022-09-17T06:47:16;67731.34;;;12.85;100.00
5988;BME280;3021;51.000;6.980;2022-09-17T06:49:42;67725.69;;;12.83;100.00
5988;BME280;3021;51.000;6.980;2022-09-17T06:52:07;67723.81;;;12.78;100.00
5988;BME280;3021;51.000;6.980;2022-09-17T06:54:32;67707.19;;;12.66;100.00
5988;BME280;3021;51.000;6.980;2022-09-17T06:56:58;67706.44;;;12.63;100.00
5988;BME280;3021;51.000;6.980;2022-09-17T06:59:23;67693.28;;;12.54;100.00
5988;BME280;3021;51.000;6.980;2022-09-17T07:01:49;67697.91;;;12.58;100.00
5988;BME280;3021;51.000;6.980;2022-09-17T07:04:15;67697.19;;;12.55;100.00
5988;BME280;3021;51.000;6.980;2022-09-17T07:06:43;67690.84;;;12.49;100.00
5988;BME280;3021;51.000;6.980;2022-09-17T07:09:09;67694.28;;;12.52;100.00
5988;BME280;3021;51.000;6.980;2022-09-17T07:11:35;67686.63;;;12.43;100.00
5988;BME280;3021;51.000;6.980;2022-09-17T07:14:00;67670.72;;;12.34;100.00
5988;BME280;3021;51.000;6.980;2022-09-17T07:16:26;67681.56;;;12.41;100.00
5988;BME280;3021;51.000;6.980;2022-09-17T07:18:52;67716.44;;;12.74;100.00
5988;BME280;3021;51.000;6.980;2022-09-17T07:21:17;67785.94;;;13.36;100.00
5988;BME280;3021;51.000;6.980;2022-09-17T07:23:43;67847.34;;;13.91;100.00
5988;BME280;3021;51.000;6.980;2022-09-17T07:26:14;67856.75;;;14.02;100.00
5988;BME280;3021;51.000;6.980;2022-09-17T07:28:40;67845.59;;;13.89;100.00
5988;BME280;3021;51.000;6.980;2022-09-17T07:31:06;67828.09;;;13.71;100.00
5988;BME280;3021;51.000;6.980;2022-09-17T07:33:34;67796.34;;;13.45;100.00
5988;BME280;3021;51.000;6.980;2022-09-17T07:36:02;67791.00;;;13.38;100.00
5988;BME280;3021;51.000;6.980;2022-09-17T07:38:29;67788.81;;;13.39;100.00
5988;BME280;3021;51.000;6.980;2022-09-17T07:41:03;67790.56;;;13.40;100.00
5988;BME280;3021;51.000;6.980;2022-09-17T07:43:31;67830.97;;;13.74;100.00
5988;BME280;3021;51.000;6.980;2022-09-17T07:45:58;67857.75;;;14.00;100.00
5988;BME280;3021;51.000;6.980;2022-09-17T07:48:25;67856.63;;;13.99;100.00
5988;BME280;3021;51.000;6.980;2022-09-17T07:50:50;67879.66;;;14.17;100.00
5988;BME280;3021;51.000;6.980;2022-09-17T07:53:16;67888.34;;;14.25;100.00
5988;BME280;3021;51.000;6.980;2022-09-17T07:55:45;67887.19;;;14.24;100.00
5988;BME280;3021;51.000;6.980;2022-09-17T07:58:15;67904.13;;;14.41;100.00
5988;BME280;3021;51.000;6.980;2022-09-17T08:00:40;67899.50;;;14.37;100.00
5988;BME280;3021;51.000;6.980;2022-09-17T08:03:05;67906.91;;;14.41;100.00
5988;BME280;3021;51.000;6.980;2022-09-17T08:05:31;67905.59;;;14.38;100.00
5988;BME280;3021;51.000;6.980;2022-09-17T08:07:56;67922.69;;;14.58;100.00
5988;BME280;3021;51.000;6.980;2022-09-17T08:10:22;67936.03;;;14.69;100.00
5988;BME280;3021;51.000;6.980;2022-09-17T08:12:48;67964.47;;;14.95;100.00
5988;BME280;3021;51.000;6.980;2022-09-17T08:15:17;67994.59;;;15.21;100.00
5988;BME280;3021;51.000;6.980;2022-09-17T08:17:46;68016.66;;;15.41;100.00
5988;BME280;3021;51.000;6.980;2022-09-17T08:20:12;68074.13;;;15.92;100.00
5988;BME280;3021;51.000;6.980;2022-09-17T08:22:39;68053.78;;;15.74;100.00
5988;BME280;3021;51.000;6.980;2022-09-17T08:25:05;68025.22;;;15.46;100.00
5988;BME280;3021;51.000;6.980;2022-09-17T08:27:31;68046.25;;;15.67;100.00
5988;BME280;3021;51.000;6.980;2022-09-17T08:29:56;68059.03;;;15.79;100.00
5988;BME280;3021;51.000;6.980;2022-09-17T08:32:22;68082.81;;;16.00;100.00
5988;BME280;3021;51.000;6.980;2022-09-17T08:34:48;68074.13;;;15.92;100.00
5988;BME280;3021;51.000;6.980;2022-09-17T08:37:13;68090.38;;;16.06;100.00
5988;BME280;3021;51.000;6.980;2022-09-17T08:39:38;68099.66;;;16.15;100.00
5988;BME280;3021;51.000;6.980;2022-09-17T08:44:41;68082.13;;;15.97;100.00
5988;BME280;3021;51.000;6.980;2022-09-17T08:47:14;68051.03;;;15.74;100.00
5988;BME280;3021;51.000;6.980;2022-09-17T08:49:49;68116.50;;;16.30;100.00
5988;BME280;3021;51.000;6.980;2022-09-17T08:55:42;68221.63;;;17.23;100.00
5988;BME280;3021;51.000;6.980;2022-09-17T09:01:21;68355.19;;;18.39;100.00
5988;BME280;3021;51.000;6.980;2022-09-17T09:06:23;68295.00;;;17.90;100.00
5988;BME280;3021;51.000;6.980;2022-09-17T09:09:19;68396.78;;;18.80;100.00
5988;BME280;3021;51.000;6.980;2022-09-17T09:11:46;68327.56;;;18.19;100.00
5988;BME280;3021;51.000;6.980;2022-09-17T09:16:41;68401.41;;;18.85;100.00
5988;BME280;3021;51.000;6.980;2022-09-17T09:19:21;68419.34;;;18.98;100.00
5988;BME280;3021;51.000;6.980;2022-09-17T09:22:01;68514.34;;;19.84;100.00
5988;BME280;3021;51.000;6.980;2022-09-17T09:27:23;68679.06;;;21.28;100.00
5988;BME280;3021;51.000;6.980;2022-09-17T09:35:23;68483.34;;;19.55;100.00
5988;BME280;3021;51.000;6.980;2022-09-17T09:37:56;68379.75;;;18.63;100.00
5988;BME280;3021;51.000;6.980;2022-09-17T09:43:08;68942.19;;;23.60;100.00
5988;BME280;3021;51.000;6.980;2022-09-17T09:49:18;68976.75;;;23.93;100.00
5988;BME280;3021;51.000;6.980;2022-09-17T09:51:47;68598.06;;;20.56;100.00
5988;BME280;3021;51.000;6.980;2022-09-17T09:54:31;68391.84;;;18.71;100.00
5988;BME280;3021;51.000;6.980;2022-09-17T09:57:02;68246.47;;;17.42;100.00
5988;BME280;3021;51.000;6.980;2022-09-17T09:59:31;68435.63;;;19.12;100.00
5988;BME280;3021;51.000;6.980;2022-09-17T10:01:57;68512.47;;;19.80;100.00
5988;BME280;3021;51.000;6.980;2022-09-17T10:04:25;68523.66;;;19.93;100.00
5988;BME280;3021;51.000;6.980;2022-09-17T10:06:53;68422.38;;;19.03;100.00
5988;BME280;3021;51.000;6.980;2022-09-17T10:09:20;68336.59;;;18.22;100.00
5988;BME280;3021;51.000;6.980;2022-09-17T10:14:26;68215.69;;;17.15;100.00
5988;BME280;3021;51.000;6.980;2022-09-17T10:17:23;68228.03;;;17.28;100.00
5988;BME280;3021;51.000;6.980;2022-09-17T10:22:38;68619.19;;;20.77;100.00
5988;BME280;3021;51.000;6.980;2022-09-17T10:27:51;68508.63;;;19.82;100.00
5988;BME280;3021;51.000;6.980;2022-09-17T10:30:18;68387.47;;;18.72;100.00
5988;BME280;3021;51.000;6.980;2022-09-17T10:32:43;68307.06;;;17.99;100.00
5988;BME280;3021;51.000;6.980;2022-09-17T10:35:29;68231.50;;;17.32;100.00
5988;BME280;3021;51.000;6.980;2022-09-17T10:37:55;68566.63;;;20.28;100.00
5988;BME280;3021;51.000;6.980;2022-09-17T10:40:26;69066.75;;;24.72;100.00
5988;BME280;3021;51.000;6.980;2022-09-17T10:45:38;69424.84;;;27.90;80.25
5988;BME280;3021;51.000;6.980;2022-09-17T10:48:04;69077.13;;;24.79;87.73
5988;BME280;3021;51.000;6.980;2022-09-17T10:50:39;68731.56;;;21.74;100.00
5988;BME280;3021;51.000;6.980;2022-09-17T10:53:05;68561.97;;;20.24;100.00
5988;BME280;3021;51.000;6.980;2022-09-17T10:55:44;68409.31;;;18.87;100.00
5988;BME280;3021;51.000;6.980;2022-09-17T11:16:56;68182.13;;;16.88;100.00
5988;BME280;3021;51.000;6.980;2022-09-17T11:31:36;68213.50;;;17.16;100.00
5988;BME280;3021;51.000;6.980;2022-09-17T11:42:18;68269.72;;;17.63;100.00
5988;BME280;3021;51.000;6.980;2022-09-17T11:44:57;68262.88;;;17.59;100.00
5988;BME280;3021;51.000;6.980;2022-09-17T11:47:40;68256.94;;;17.52;100.00
5988;BME280;3021;51.000;6.980;2022-09-17T11:53:03;68180.25;;;16.84;100.00
5988;BME280;3021;51.000;6.980;2022-09-17T11:56:07;68090.81;;;16.04;100.00
5988;BME280;3021;51.000;6.980;2022-09-17T12:01:10;67840.69;;;13.80;100.00
5988;BME280;3021;51.000;6.980;2022-09-17T12:03:46;67758.00;;;13.09;100.00
5988;BME280;3021;51.000;6.980;2022-09-17T12:06:18;67681.00;;;12.40;100.00
5988;BME280;3021;51.000;6.980;2022-09-17T12:09:00;67656.53;;;12.16;100.00
5988;BME280;3021;51.000;6.980;2022-09-17T12:11:42;67695.00;;;12.55;100.00
5988;BME280;3021;51.000;6.980;2022-09-17T12:17:22;67735.38;;;12.89;100.00
5988;BME280;3021;51.000;6.980;2022-09-17T12:19:58;67730.19;;;12.84;100.00
5988;BME280;3021;51.000;6.980;2022-09-17T12:22:30;67726.13;;;12.81;100.00
5988;BME280;3021;51.000;6.980;2022-09-17T12:24:59;67740.03;;;12.93;100.00
5988;BME280;3021;51.000;6.980;2022-09-17T12:41:25;67786.78;;;13.32;100.00
5988;BME280;3021;51.000;6.980;2022-09-17T12:52:58;67908.63;;;14.43;100.00
5988;BME280;3021;51.000;6.980;2022-09-17T12:58:42;67910.50;;;14.47;100.00
5988;BME280;3021;51.000;6.980;2022-09-17T13:01:23;67889.66;;;14.28;100.00
5988;BME280;3021;51.000;6.980;2022-09-17T13:03:56;67868.63;;;14.07;100.00
5988;BME280;3021;51.000;6.980;2022-09-17T13:09:14;67684.31;;;12.41;100.00
5988;BME280;3021;51.000;6.980;2022-09-17T13:11:59;67617.16;;;11.81;100.00
5988;BME280;3021;51.000;6.980;2022-09-17T13:20:31;67545.03;;;11.19;100.00
5988;BME280;3021;51.000;6.980;2022-09-17T13:22:58;67535.78;;;11.11;100.00
5988;BME280;3021;51.000;6.980;2022-09-17T13:25:24;67531.59;;;11.05;100.00
5988;BME280;3021;51.000;6.980;2022-09-17T13:28:04;67526.09;;;11.05;100.00
5988;BME280;3021;51.000;6.980;2022-09-17T13:30:57;67517.72;;;10.93;100.00
5988;BME280;3021;51.000;6.980;2022-09-17T13:33:59;67533.91;;;11.07;100.00
5988;BME280;3021;51.000;6.980;2022-09-17T13:39:10;67561.06;;;11.31;100.00
5988;BME280;3021;51.000;6.980;2022-09-17T13:42:05;67540.97;;;11.16;100.00
5988;BME280;3021;51.000;6.980;2022-09-17T13:44:35;67540.41;;;11.15;100.00
5988;BME280;3021;51.000;6.980;2022-09-17T13:47:16;67525.94;;;11.02;100.00
5988;BME280;3021;51.000;6.980;2022-09-17T13:49:52;67544.31;;;11.16;100.00
5988;BME280;3021;51.000;6.980;2022-09-17T13:52:41;67552.41;;;11.23;100.00
5988;BME280;3021;51.000;6.980;2022-09-17T13:55:38;67570.47;;;11.42;100.00
5988;BME280;3021;51.000;6.980;2022-09-17T13:58:08;67577.41;;;11.48;100.00
5988;BME280;3021;51.000;6.980;2022-09-17T14:13:56;67661.19;;;12.20;100.00
5988;BME280;3021;51.000;6.980;2022-09-17T14:19:19;67711.06;;;12.67;100.00
5988;BME280;3021;51.000;6.980;2022-09-17T14:27:12;67807.81;;;13.53;100.00
5988;BME280;3021;51.000;6.980;2022-09-17T14:35:13;67805.50;;;13.51;100.00
5988;BME280;3021;51.000;6.980;2022-09-17T14:37:41;67783.03;;;13.34;100.00
5988;BME280;3021;51.000;6.980;2022-09-17T14:40:09;67739.44;;;12.92;100.00
5988;BME280;3021;51.000;6.980;2022-09-17T14:42:38;67711.78;;;12.70;100.00
5988;BME280;3021;51.000;6.980;2022-09-17T14:45:35;67608.06;;;11.75;100.00
5988;BME280;3021;51.000;6.980;2022-09-17T14:50:48;67448.91;;;10.31;100.00
5988;BME280;3021;51.000;6.980;2022-09-17T14:53:16;67461.81;;;10.45;100.00
5988;BME280;3021;51.000;6.980;2022-09-17T14:55:43;67494.16;;;10.74;100.00
5988;BME280;3021;51.000;6.980;2022-09-17T14:58:46;67526.66;;;11.05;100.00
5988;BME280;3021;51.000;6.980;2022-09-17T15:01:30;67545.44;;;11.17;100.00
5988;BME280;3021;51.000;6.980;2022-09-17T15:06:36;67572.22;;;11.44;100.00
5988;BME280;3021;51.000;6.980;2022-09-17T15:09:02;67573.94;;;11.45;100.00
5988;BME280;3021;51.000;6.980;2022-09-17T15:11:29;67569.75;;;11.39;100.00
5988;BME280;3021;51.000;6.980;2022-09-17T15:13:55;67555.31;;;11.26;100.00
5988;BME280;3021;51.000;6.980;2022-09-17T15:16:23;67550.38;;;11.27;100.00
5988;BME280;3021;51.000;6.980;2022-09-17T15:18:55;67554.28;;;11.28;100.00
5988;BME280;3021;51.000;6.980;2022-09-17T15:21:43;67557.16;;;11.30;100.00
5988;BME280;3021;51.000;6.980;2022-09-17T15:24:18;67549.66;;;11.23;100.00
5988;BME280;3021;51.000;6.980;2022-09-17T15:26:48;67536.22;;;11.09;100.00
5988;BME280;3021;51.000;6.980;2022-09-17T15:29:15;67520.91;;;11.00;100.00
5988;BME280;3021;51.000;6.980;2022-09-17T15:31:42;67522.34;;;10.97;100.00
5988;BME280;3021;51.000;6.980;2022-09-17T15:34:10;67510.78;;;10.86;100.00
5988;BME280;3021;51.000;6.980;2022-09-17T15:36:36;67511.94;;;10.87;100.00
5988;BME280;3021;51.000;6.980;2022-09-17T15:39:28;67510.19;;;10.86;100.00
5988;BME280;3021;51.000;6.980;2022-09-17T15:41:56;67519.16;;;10.99;100.00
5988;BME280;3021;51.000;6.980;2022-09-17T15:44:25;67558.78;;;11.29;100.00
5988;BME280;3021;51.000;6.980;2022-09-17T15:46:51;67583.63;;;11.51;100.00
5988;BME280;3021;51.000;6.980;2022-09-17T15:49:34;67597.06;;;11.66;100.00
5988;BME280;3021;51.000;6.980;2022-09-17T15:52:29;67605.31;;;11.75;100.00
5988;BME280;3021;51.000;6.980;2022-09-17T15:54:58;67628.34;;;11.93;100.00
5988;BME280;3021;51.000;6.980;2022-09-17T15:57:25;67639.75;;;12.01;100.00
5988;BME280;3021;51.000;6.980;2022-09-17T15:59:52;67631.81;;;11.97;100.00
5988;BME280;3021;51.000;6.980;2022-09-17T16:02:30;67639.34;;;12.03;100.00
5988;BME280;3021;51.000;6.980;2022-09-17T16:07:41;67646.84;;;12.10;100.00
5988;BME280;3021;51.000;6.980;2022-09-17T16:10:07;67633.53;;;11.98;100.00
5988;BME280;3021;51.000;6.980;2022-09-17T16:12:33;67627.88;;;11.96;100.00
5988;BME280;3021;51.000;6.980;2022-09-17T16:14:59;67620.38;;;11.89;100.00
5988;BME280;3021;51.000;6.980;2022-09-17T16:17:46;67623.69;;;11.89;100.00
5988;BME280;3021;51.000;6.980;2022-09-17T16:20:19;67622.53;;;11.88;100.00
5988;BME280;3021;51.000;6.980;2022-09-17T16:22:48;67602.28;;;11.70;100.00
5988;BME280;3021;51.000;6.980;2022-09-17T16:25:15;67611.53;;;11.79;100.00
5988;BME280;3021;51.000;6.980;2022-09-17T16:27:45;67598.22;;;11.67;100.00
5988;BME280;3021;51.000;6.980;2022-09-17T16:30:14;67592.31;;;11.59;100.00
5988;BME280;3021;51.000;6.980;2022-09-17T16:32:41;67587.81;;;11.57;100.00
5988;BME280;3021;51.000;6.980;2022-09-17T16:35:10;67597.78;;;11.69;100.00
5988;BME280;3021;51.000;6.980;2022-09-17T16:37:36;67602.84;;;11.71;100.00
5988;BME280;3021;51.000;6.980;2022-09-17T16:40:01;67597.66;;;11.66;100.00
5988;BME280;3021;51.000;6.980;2022-09-17T16:42:30;67594.03;;;11.61;100.00
5988;BME280;3021;51.000;6.980;2022-09-17T16:44:55;67592.44;;;11.62;100.00
5988;BME280;3021;51.000;6.980;2022-09-17T16:47:20;67603.28;;;11.69;100.00
5988;BME280;3021;51.000;6.980;2022-09-17T16:49:45;67601.28;;;11.72;100.00